Stony Rapids, Canada
Current Conditions -  °F | °C
As of 7:00 PM on Monday 26 Jan 2015 (Local Time) from CYSF Reporting Station
Light Snow Light Snow  
Wind Chill: -5°   Ceiling: 1400
Heat Index: 12°   Visibility: 9mi
Dew Point:   Wind: 18mph
Humidity: 85%   Direction: 270°W
Pressure: 29.71"   Gusts: 24mph
Location:  59.27°N, 105.83°W
Report Text: CYSF 270100Z AUTO 27016G21KT 9SM -SN OVC014 M11/M13 A2971 RMK SLP083
Loading
Personal Weather Stations






























Interactive Weather Map New forecast layout! Learn more

10-Day Weather Forecast

Advertisements
Track Severe Weather on mobile